sensor_id;sensor_type;location;lat;lon;timestamp;pressure;altitude;pressure_sealevel;temperature;humidity
11680;BME280;5896;42.686;23.142;2024-01-15T00:01:07;92477.00;;;1.39;49.72
11680;BME280;5896;42.686;23.142;2024-01-15T00:03:33;92476.94;;;1.33;50.10
11680;BME280;5896;42.686;23.142;2024-01-15T00:05:58;92464.38;;;1.31;50.09
11680;BME280;5896;42.686;23.142;2024-01-15T00:08:23;92480.25;;;1.18;50.09
11680;BME280;5896;42.686;23.142;2024-01-15T00:10:49;92471.63;;;1.19;50.33
11680;BME280;5896;42.686;23.142;2024-01-15T00:13:14;92468.13;;;1.06;51.12
11680;BME280;5896;42.686;23.142;2024-01-15T00:15:39;92480.03;;;1.05;51.35
11680;BME280;5896;42.686;23.142;2024-01-15T00:18:05;92471.97;;;1.02;51.43
11680;BME280;5896;42.686;23.142;2024-01-15T00:20:30;92478.81;;;1.01;51.09
11680;BME280;5896;42.686;23.142;2024-01-15T00:22:56;92476.72;;;1.05;50.98
11680;BME280;5896;42.686;23.142;2024-01-15T00:25:22;92477.94;;;1.09;50.91
11680;BME280;5896;42.686;23.142;2024-01-15T00:27:47;92473.81;;;1.08;50.23
11680;BME280;5896;42.686;23.142;2024-01-15T00:30:13;92468.06;;;1.14;50.10
11680;BME280;5896;42.686;23.142;2024-01-15T00:32:38;92475.72;;;1.06;50.38
11680;BME280;5896;42.686;23.142;2024-01-15T00:35:04;92468.06;;;1.14;48.88
11680;BME280;5896;42.686;23.142;2024-01-15T00:37:30;92478.94;;;1.23;48.65
11680;BME280;5896;42.686;23.142;2024-01-15T00:39:55;92478.13;;;1.22;48.75
11680;BME280;5896;42.686;23.142;2024-01-15T00:42:21;92476.03;;;1.26;47.21
11680;BME280;5896;42.686;23.142;2024-01-15T00:44:46;92471.13;;;1.24;47.04
11680;BME280;5896;42.686;23.142;2024-01-15T00:47:11;92479.38;;;1.26;46.70
11680;BME280;5896;42.686;23.142;2024-01-15T00:49:37;92470.78;;;1.27;46.15
11680;BME280;5896;42.686;23.142;2024-01-15T00:52:03;92480.91;;;1.12;47.74
11680;BME280;5896;42.686;23.142;2024-01-15T00:54:28;92479.69;;;1.08;46.93
11680;BME280;5896;42.686;23.142;2024-01-15T00:56:54;92474.59;;;1.08;46.78
11680;BME280;5896;42.686;23.142;2024-01-15T00:59:20;92480.50;;;1.24;46.27
11680;BME280;5896;42.686;23.142;2024-01-15T01:01:46;92464.66;;;1.21;46.36
11680;BME280;5896;42.686;23.142;2024-01-15T01:04:11;92472.09;;;1.23;46.10
11680;BME280;5896;42.686;23.142;2024-01-15T01:06:37;92470.59;;;1.14;46.87
11680;BME280;5896;42.686;23.142;2024-01-15T01:09:03;92473.03;;;1.07;46.97
11680;BME280;5896;42.686;23.142;2024-01-15T01:11:28;92464.00;;;1.05;46.79
11680;BME280;5896;42.686;23.142;2024-01-15T01:13:54;92470.66;;;1.06;46.82
11680;BME280;5896;42.686;23.142;2024-01-15T01:16:19;92470.16;;;1.10;46.46
11680;BME280;5896;42.686;23.142;2024-01-15T01:18:44;92462.34;;;1.12;46.46
11680;BME280;5896;42.686;23.142;2024-01-15T01:21:10;92455.41;;;1.06;46.24
11680;BME280;5896;42.686;23.142;2024-01-15T01:23:35;92449.19;;;1.08;46.90
11680;BME280;5896;42.686;23.142;2024-01-15T01:26:00;92448.50;;;1.14;46.09
11680;BME280;5896;42.686;23.142;2024-01-15T01:28:26;92443.50;;;1.06;46.58
11680;BME280;5896;42.686;23.142;2024-01-15T01:30:51;92444.66;;;1.04;46.61
11680;BME280;5896;42.686;23.142;2024-01-15T01:33:17;92443.06;;;1.03;46.47
11680;BME280;5896;42.686;23.142;2024-01-15T01:35:42;92439.22;;;1.07;46.89
11680;BME280;5896;42.686;23.142;2024-01-15T01:38:08;92439.38;;;1.05;47.16
11680;BME280;5896;42.686;23.142;2024-01-15T01:40:34;92442.00;;;0.97;46.93
11680;BME280;5896;42.686;23.142;2024-01-15T01:42:59;92445.63;;;1.03;46.91
11680;BME280;5896;42.686;23.142;2024-01-15T01:45:24;92438.00;;;1.03;46.97
11680;BME280;5896;42.686;23.142;2024-01-15T01:47:50;92434.38;;;0.97;47.00
11680;BME280;5896;42.686;23.142;2024-01-15T01:50:16;92440.59;;;0.94;47.68
11680;BME280;5896;42.686;23.142;2024-01-15T01:52:42;92439.66;;;0.95;48.02
11680;BME280;5896;42.686;23.142;2024-01-15T01:55:09;92431.56;;;0.92;48.22
11680;BME280;5896;42.686;23.142;2024-01-15T01:57:36;92431.72;;;0.90;48.12
11680;BME280;5896;42.686;23.142;2024-01-15T02:00:03;92421.25;;;1.08;47.17
11680;BME280;5896;42.686;23.142;2024-01-15T02:02:30;92427.81;;;1.03;47.55
11680;BME280;5896;42.686;23.142;2024-01-15T02:04:56;92416.34;;;1.07;47.64
11680;BME280;5896;42.686;23.142;2024-01-15T02:07:21;92421.25;;;1.08;46.99
11680;BME280;5896;42.686;23.142;2024-01-15T02:09:47;92417.03;;;1.01;46.99
11680;BME280;5896;42.686;23.142;2024-01-15T02:12:14;92408.34;;;1.10;46.62
11680;BME280;5896;42.686;23.142;2024-01-15T02:14:39;92388.91;;;1.17;45.71
11680;BME280;5896;42.686;23.142;2024-01-15T02:17:06;92370.84;;;1.12;46.92
11680;BME280;5896;42.686;23.142;2024-01-15T02:19:31;92361.38;;;1.06;47.04
11680;BME280;5896;42.686;23.142;2024-01-15T02:21:56;92346.56;;;1.24;47.12
11680;BME280;5896;42.686;23.142;2024-01-15T02:24:22;92360.94;;;1.17;47.88
11680;BME280;5896;42.686;23.142;2024-01-15T02:26:48;92359.66;;;1.06;47.54
11680;BME280;5896;42.686;23.142;2024-01-15T02:29:14;92359.38;;;1.01;47.49
11680;BME280;5896;42.686;23.142;2024-01-15T02:31:40;92363.66;;;0.56;49.54
11680;BME280;5896;42.686;23.142;2024-01-15T02:34:05;92370.06;;;0.96;48.02
11680;BME280;5896;42.686;23.142;2024-01-15T02:36:31;92367.19;;;0.85;49.08
11680;BME280;5896;42.686;23.142;2024-01-15T02:38:56;92364.38;;;0.94;48.66
11680;BME280;5896;42.686;23.142;2024-01-15T02:41:21;92367.19;;;1.00;48.06
11680;BME280;5896;42.686;23.142;2024-01-15T02:43:47;92359.81;;;0.90;48.84
11680;BME280;5896;42.686;23.142;2024-01-15T02:46:12;92355.69;;;0.74;49.71
11680;BME280;5896;42.686;23.142;2024-01-15T02:48:38;92360.25;;;0.93;49.17
11680;BME280;5896;42.686;23.142;2024-01-15T02:51:03;92358.94;;;0.97;49.11
11680;BME280;5896;42.686;23.142;2024-01-15T02:53:29;92355.59;;;1.12;47.93
11680;BME280;5896;42.686;23.142;2024-01-15T02:55:54;92341.50;;;1.09;47.46
11680;BME280;5896;42.686;23.142;2024-01-15T02:58:19;92332.38;;;1.30;46.42
11680;BME280;5896;42.686;23.142;2024-01-15T03:00:45;92339.09;;;1.37;47.04
11680;BME280;5896;42.686;23.142;2024-01-15T03:03:11;92345.34;;;1.05;47.89
11680;BME280;5896;42.686;23.142;2024-01-15T03:05:37;92337.03;;;1.26;46.95
11680;BME280;5896;42.686;23.142;2024-01-15T03:08:02;92308.78;;;1.21;47.37
11680;BME280;5896;42.686;23.142;2024-01-15T03:10:28;92326.50;;;1.29;47.11
11680;BME280;5896;42.686;23.142;2024-01-15T03:12:53;92320.19;;;1.25;47.19
11680;BME280;5896;42.686;23.142;2024-01-15T03:15:18;92322.31;;;1.21;47.84
11680;BME280;5896;42.686;23.142;2024-01-15T03:17:44;92332.25;;;0.72;50.61
11680;BME280;5896;42.686;23.142;2024-01-15T03:20:10;92311.88;;;1.02;49.21
11680;BME280;5896;42.686;23.142;2024-01-15T03:22:36;92305.88;;;0.88;50.46
11680;BME280;5896;42.686;23.142;2024-01-15T03:25:01;92333.19;;;0.86;49.35
11680;BME280;5896;42.686;23.142;2024-01-15T03:27:26;92336.69;;;0.55;52.69
11680;BME280;5896;42.686;23.142;2024-01-15T03:29:52;92350.53;;;-0.31;56.24
11680;BME280;5896;42.686;23.142;2024-01-15T03:32:17;92344.47;;;0.01;52.77
11680;BME280;5896;42.686;23.142;2024-01-15T03:34:44;92344.56;;;0.08;53.92
11680;BME280;5896;42.686;23.142;2024-01-15T03:37:11;92341.34;;;-0.09;54.77
11680;BME280;5896;42.686;23.142;2024-01-15T03:39:36;92341.81;;;0.32;52.12
11680;BME280;5896;42.686;23.142;2024-01-15T03:42:01;92340.38;;;-0.85;59.42
11680;BME280;5896;42.686;23.142;2024-01-15T03:44:27;92337.50;;;-1.85;62.31
11680;BME280;5896;42.686;23.142;2024-01-15T03:46:52;92342.09;;;-2.22;63.75
11680;BME280;5896;42.686;23.142;2024-01-15T03:49:17;92346.28;;;-2.71;65.52
11680;BME280;5896;42.686;23.142;2024-01-15T03:51:43;92329.41;;;-2.54;65.76
11680;BME280;5896;42.686;23.142;2024-01-15T03:54:08;92328.16;;;-2.58;66.87
11680;BME280;5896;42.686;23.142;2024-01-15T03:56:34;92327.06;;;-2.64;66.82
11680;BME280;5896;42.686;23.142;2024-01-15T03:58:59;92326.00;;;-2.96;67.27
11680;BME280;5896;42.686;23.142;2024-01-15T04:01:24;92329.44;;;-3.13;68.88
11680;BME280;5896;42.686;23.142;2024-01-15T04:03:50;92327.03;;;-3.23;69.04
11680;BME280;5896;42.686;23.142;2024-01-15T04:06:15;92317.59;;;-3.21;68.50
11680;BME280;5896;42.686;23.142;2024-01-15T04:08:40;92321.50;;;-3.26;68.91
11680;BME280;5896;42.686;23.142;2024-01-15T04:11:06;92328.00;;;-3.15;68.76
11680;BME280;5896;42.686;23.142;2024-01-15T04:13:34;92319.84;;;-3.09;68.55
11680;BME280;5896;42.686;23.142;2024-01-15T04:16:00;92333.31;;;-2.84;68.44
11680;BME280;5896;42.686;23.142;2024-01-15T04:18:25;92329.63;;;-3.06;67.80
11680;BME280;5896;42.686;23.142;2024-01-15T04:20:51;92327.91;;;-2.98;68.36
11680;BME280;5896;42.686;23.142;2024-01-15T04:23:16;92327.53;;;-3.19;68.35
11680;BME280;5896;42.686;23.142;2024-01-15T04:25:41;92333.44;;;-3.02;68.48
11680;BME280;5896;42.686;23.142;2024-01-15T04:28:08;92329.63;;;-3.06;68.10
11680;BME280;5896;42.686;23.142;2024-01-15T04:30:34;92324.69;;;-3.16;68.39
11680;BME280;5896;42.686;23.142;2024-01-15T04:32:59;92328.31;;;-3.19;68.58
11680;BME280;5896;42.686;23.142;2024-01-15T04:35:24;92310.09;;;-3.38;69.72
11680;BME280;5896;42.686;23.142;2024-01-15T04:37:50;92313.25;;;-3.45;70.20
11680;BME280;5896;42.686;23.142;2024-01-15T04:40:15;92317.63;;;-3.47;70.56
11680;BME280;5896;42.686;23.142;2024-01-15T04:42:41;92310.47;;;-3.25;69.91
11680;BME280;5896;42.686;23.142;2024-01-15T04:45:06;92304.38;;;-0.73;59.24
11680;BME280;5896;42.686;23.142;2024-01-15T04:47:32;92301.75;;;0.42;54.91
11680;BME280;5896;42.686;23.142;2024-01-15T04:49:57;92286.78;;;0.77;53.39
11680;BME280;5896;42.686;23.142;2024-01-15T04:52:22;92273.78;;;0.87;53.06
11680;BME280;5896;42.686;23.142;2024-01-15T04:54:48;92276.94;;;1.04;51.50
11680;BME280;5896;42.686;23.142;2024-01-15T04:57:14;92259.25;;;0.95;51.87
11680;BME280;5896;42.686;23.142;2024-01-15T04:59:40;92248.19;;;1.03;51.41
11680;BME280;5896;42.686;23.142;2024-01-15T05:02:05;92257.25;;;1.27;50.24
11680;BME280;5896;42.686;23.142;2024-01-15T05:04:31;92261.97;;;1.30;50.89
11680;BME280;5896;42.686;23.142;2024-01-15T05:06:56;92262.06;;;1.37;49.43
11680;BME280;5896;42.686;23.142;2024-01-15T05:09:21;92267.03;;;0.94;53.02
11680;BME280;5896;42.686;23.142;2024-01-15T05:11:47;92269.53;;;1.24;49.90
11680;BME280;5896;42.686;23.142;2024-01-15T05:14:12;92283.31;;;1.14;50.11
11680;BME280;5896;42.686;23.142;2024-01-15T05:16:38;92288.09;;;0.88;51.17
11680;BME280;5896;42.686;23.142;2024-01-15T05:19:04;92296.13;;;0.17;54.33
11680;BME280;5896;42.686;23.142;2024-01-15T05:21:29;92297.88;;;-0.44;57.61
11680;BME280;5896;42.686;23.142;2024-01-15T05:23:55;92297.03;;;-1.77;61.43
11680;BME280;5896;42.686;23.142;2024-01-15T05:26:20;92294.34;;;-2.82;66.07
11680;BME280;5896;42.686;23.142;2024-01-15T05:28:45;92285.38;;;-2.76;66.64
11680;BME280;5896;42.686;23.142;2024-01-15T05:31:11;92285.69;;;-3.30;68.71
11680;BME280;5896;42.686;23.142;2024-01-15T05:33:37;92283.19;;;-3.64;70.50
11680;BME280;5896;42.686;23.142;2024-01-15T05:36:02;92266.66;;;-3.08;68.33
11680;BME280;5896;42.686;23.142;2024-01-15T05:38:28;92271.50;;;-3.23;69.90
11680;BME280;5896;42.686;23.142;2024-01-15T05:40:53;92263.72;;;-2.71;67.12
11680;BME280;5896;42.686;23.142;2024-01-15T05:43:19;92247.44;;;-2.92;67.83
11680;BME280;5896;42.686;23.142;2024-01-15T05:45:44;92261.97;;;-2.95;67.90
11680;BME280;5896;42.686;23.142;2024-01-15T05:48:10;92251.69;;;-3.01;67.86
11680;BME280;5896;42.686;23.142;2024-01-15T05:50:35;92269.47;;;-3.19;68.78
11680;BME280;5896;42.686;23.142;2024-01-15T05:53:01;92268.03;;;-3.30;69.19
11680;BME280;5896;42.686;23.142;2024-01-15T05:55:27;92270.41;;;-3.28;68.64
11680;BME280;5896;42.686;23.142;2024-01-15T05:57:53;92272.00;;;-3.11;68.26
11680;BME280;5896;42.686;23.142;2024-01-15T06:00:18;92274.22;;;-3.16;68.59
11680;BME280;5896;42.686;23.142;2024-01-15T06:02:44;92259.75;;;-2.98;68.05
11680;BME280;5896;42.686;23.142;2024-01-15T06:05:09;92262.94;;;-1.11;59.82
11680;BME280;5896;42.686;23.142;2024-01-15T06:07:34;92274.91;;;-1.83;62.05
11680;BME280;5896;42.686;23.142;2024-01-15T06:10:00;92270.88;;;-2.50;66.44
11680;BME280;5896;42.686;23.142;2024-01-15T06:12:28;92253.78;;;-2.31;65.52
11680;BME280;5896;42.686;23.142;2024-01-15T06:14:53;92251.44;;;-2.57;66.68
11680;BME280;5896;42.686;23.142;2024-01-15T06:17:18;92245.09;;;-2.94;67.92
11680;BME280;5896;42.686;23.142;2024-01-15T06:19:44;92249.06;;;-2.67;67.16
11680;BME280;5896;42.686;23.142;2024-01-15T06:22:09;92254.91;;;-1.54;61.03
11680;BME280;5896;42.686;23.142;2024-01-15T06:24:35;92254.03;;;-1.93;62.63
11680;BME280;5896;42.686;23.142;2024-01-15T06:27:00;92267.94;;;-1.34;61.04
11680;BME280;5896;42.686;23.142;2024-01-15T06:29:26;92263.34;;;-1.86;64.08
11680;BME280;5896;42.686;23.142;2024-01-15T06:31:52;92261.19;;;-2.05;64.85
11680;BME280;5896;42.686;23.142;2024-01-15T06:34:17;92244.47;;;-2.23;65.07
11680;BME280;5896;42.686;23.142;2024-01-15T06:36:43;92254.72;;;-2.08;64.03
11680;BME280;5896;42.686;23.142;2024-01-15T06:39:09;92246.03;;;-1.18;59.46
11680;BME280;5896;42.686;23.142;2024-01-15T06:41:35;92246.88;;;0.27;53.51
11680;BME280;5896;42.686;23.142;2024-01-15T06:44:06;92239.84;;;0.58;52.56
11680;BME280;5896;42.686;23.142;2024-01-15T06:46:32;92248.47;;;0.93;50.80
11680;BME280;5896;42.686;23.142;2024-01-15T06:48:57;92248.00;;;1.05;50.32
11680;BME280;5896;42.686;23.142;2024-01-15T06:51:22;92251.56;;;0.89;53.78
11680;BME280;5896;42.686;23.142;2024-01-15T06:53:48;92258.56;;;0.13;54.75
11680;BME280;5896;42.686;23.142;2024-01-15T06:56:13;92267.78;;;0.73;51.61
11680;BME280;5896;42.686;23.142;2024-01-15T06:58:39;92269.97;;;0.61;52.44
11680;BME280;5896;42.686;23.142;2024-01-15T07:01:04;92269.16;;;0.02;57.58
11680;BME280;5896;42.686;23.142;2024-01-15T07:03:29;92275.22;;;-1.00;59.89
11680;BME280;5896;42.686;23.142;2024-01-15T07:05:55;92284.44;;;-1.07;61.12
11680;BME280;5896;42.686;23.142;2024-01-15T07:08:20;92279.25;;;-1.53;64.24
11680;BME280;5896;42.686;23.142;2024-01-15T07:10:45;92283.84;;;-1.09;59.79
11680;BME280;5896;42.686;23.142;2024-01-15T07:13:11;92269.28;;;-0.15;57.56
11680;BME280;5896;42.686;23.142;2024-01-15T07:15:36;92256.47;;;0.02;55.68
11680;BME280;5896;42.686;23.142;2024-01-15T07:18:02;92244.88;;;1.03;51.91
11680;BME280;5896;42.686;23.142;2024-01-15T07:20:27;92254.75;;;1.55;49.75
11680;BME280;5896;42.686;23.142;2024-01-15T07:22:52;92249.13;;;1.81;49.01
11680;BME280;5896;42.686;23.142;2024-01-15T07:25:18;92249.88;;;2.03;47.38
11680;BME280;5896;42.686;23.142;2024-01-15T07:27:43;92254.56;;;2.00;48.39
11680;BME280;5896;42.686;23.142;2024-01-15T07:30:11;92250.00;;;2.16;47.13
11680;BME280;5896;42.686;23.142;2024-01-15T07:32:36;92251.78;;;2.23;47.33
11680;BME280;5896;42.686;23.142;2024-01-15T07:35:02;92252.97;;;2.27;48.34
11680;BME280;5896;42.686;23.142;2024-01-15T07:37:27;92246.97;;;2.34;47.58
11680;BME280;5896;42.686;23.142;2024-01-15T07:39:53;92249.34;;;2.36;48.25
11680;BME280;5896;42.686;23.142;2024-01-15T07:42:19;92259.53;;;1.22;52.70
11680;BME280;5896;42.686;23.142;2024-01-15T07:44:44;92237.91;;;0.60;55.78
11680;BME280;5896;42.686;23.142;2024-01-15T07:47:10;92230.09;;;1.70;50.55
11680;BME280;5896;42.686;23.142;2024-01-15T07:49:35;92214.88;;;2.40;48.53
11680;BME280;5896;42.686;23.142;2024-01-15T07:52:01;92220.38;;;2.91;46.35
11680;BME280;5896;42.686;23.142;2024-01-15T07:54:26;92220.66;;;3.10;46.27
11680;BME280;5896;42.686;23.142;2024-01-15T07:57:04;92220.88;;;3.15;47.78
11680;BME280;5896;42.686;23.142;2024-01-15T07:59:30;92234.06;;;3.38;45.89
11680;BME280;5896;42.686;23.142;2024-01-15T08:01:55;92245.47;;;3.56;46.56
11680;BME280;5896;42.686;23.142;2024-01-15T08:04:21;92236.47;;;3.66;45.46
11680;BME280;5896;42.686;23.142;2024-01-15T08:06:49;92237.78;;;3.36;46.88
11680;BME280;5896;42.686;23.142;2024-01-15T08:09:15;92241.38;;;3.68;46.89
11680;BME280;5896;42.686;23.142;2024-01-15T08:11:40;92240.56;;;3.48;47.89
11680;BME280;5896;42.686;23.142;2024-01-15T08:14:07;92239.75;;;3.40;49.77
11680;BME280;5896;42.686;23.142;2024-01-15T08:16:32;92256.28;;;3.58;47.92
11680;BME280;5896;42.686;23.142;2024-01-15T08:18:58;92248.25;;;3.68;49.47
11680;BME280;5896;42.686;23.142;2024-01-15T08:21:24;92237.66;;;4.04;45.95
11680;BME280;5896;42.686;23.142;2024-01-15T08:23:49;92240.03;;;4.25;48.61
11680;BME280;5896;42.686;23.142;2024-01-15T08:26:14;92254.44;;;3.19;50.86
11680;BME280;5896;42.686;23.142;2024-01-15T08:28:40;92253.53;;;2.91;51.90
11680;BME280;5896;42.686;23.142;2024-01-15T08:31:05;92243.22;;;1.53;53.78
11680;BME280;5896;42.686;23.142;2024-01-15T08:33:30;92250.72;;;1.61;56.02
11680;BME280;5896;42.686;23.142;2024-01-15T08:35:56;92240.34;;;1.19;55.53
11680;BME280;5896;42.686;23.142;2024-01-15T08:38:21;92256.72;;;0.95;56.39
11680;BME280;5896;42.686;23.142;2024-01-15T08:40:48;92270.09;;;0.01;61.49
11680;BME280;5896;42.686;23.142;2024-01-15T08:43:14;92267.19;;;0.27;60.64
11680;BME280;5896;42.686;23.142;2024-01-15T08:45:40;92272.94;;;0.35;59.78
11680;BME280;5896;42.686;23.142;2024-01-15T08:48:05;92247.81;;;0.40;60.14
11680;BME280;5896;42.686;23.142;2024-01-15T08:50:32;92239.81;;;0.88;58.21
11680;BME280;5896;42.686;23.142;2024-01-15T08:52:58;92231.94;;;1.19;57.88
11680;BME280;5896;42.686;23.142;2024-01-15T08:55:23;92226.44;;;0.64;60.02
11680;BME280;5896;42.686;23.142;2024-01-15T08:57:49;92232.59;;;1.28;56.05
11680;BME280;5896;42.686;23.142;2024-01-15T09:00:15;92236.25;;;2.39;53.19
11680;BME280;5896;42.686;23.142;2024-01-15T09:02:41;92211.34;;;2.82;53.59
11680;BME280;5896;42.686;23.142;2024-01-15T09:05:07;92197.19;;;3.48;50.76
11680;BME280;5896;42.686;23.142;2024-01-15T09:07:33;92198.22;;;3.80;50.45
11680;BME280;5896;42.686;23.142;2024-01-15T09:09:58;92194.06;;;3.92;49.03
11680;BME280;5896;42.686;23.142;2024-01-15T09:12:29;92195.47;;;3.95;48.44
11680;BME280;5896;42.686;23.142;2024-01-15T09:14:55;92192.69;;;4.09;47.03
11680;BME280;5896;42.686;23.142;2024-01-15T09:17:21;92176.38;;;4.17;46.98
11680;BME280;5896;42.686;23.142;2024-01-15T09:19:48;92165.56;;;4.08;47.90
11680;BME280;5896;42.686;23.142;2024-01-15T09:22:14;92169.69;;;4.16;46.96
11680;BME280;5896;42.686;23.142;2024-01-15T09:24:42;92166.34;;;4.15;47.74
11680;BME280;5896;42.686;23.142;2024-01-15T09:27:07;92158.13;;;4.07;47.54
11680;BME280;5896;42.686;23.142;2024-01-15T09:29:33;92163.06;;;3.95;48.48
11680;BME280;5896;42.686;23.142;2024-01-15T09:31:58;92154.78;;;3.93;48.23
11680;BME280;5896;42.686;23.142;2024-01-15T09:34:24;92156.94;;;3.96;48.86
11680;BME280;5896;42.686;23.142;2024-01-15T09:36:49;92139.47;;;4.00;48.20
11680;BME280;5896;42.686;23.142;2024-01-15T09:39:15;92127.91;;;3.77;49.29
11680;BME280;5896;42.686;23.142;2024-01-15T09:41:40;92108.88;;;3.86;48.60
11680;BME280;5896;42.686;23.142;2024-01-15T09:44:07;92107.28;;;3.92;49.67
11680;BME280;5896;42.686;23.142;2024-01-15T09:46:34;92096.25;;;4.05;48.26
11680;BME280;5896;42.686;23.142;2024-01-15T09:49:00;92089.06;;;4.40;48.48
11680;BME280;5896;42.686;23.142;2024-01-15T09:51:28;92084.00;;;4.72;47.64
11680;BME280;5896;42.686;23.142;2024-01-15T09:53:57;92097.84;;;4.96;46.76
11680;BME280;5896;42.686;23.142;2024-01-15T09:56:23;92088.75;;;4.68;47.08
11680;BME280;5896;42.686;23.142;2024-01-15T09:58:48;92093.03;;;4.29;48.52
11680;BME280;5896;42.686;23.142;2024-01-15T10:01:16;92082.47;;;4.19;48.94
11680;BME280;5896;42.686;23.142;2024-01-15T10:03:42;92070.84;;;4.30;48.94
11680;BME280;5896;42.686;23.142;2024-01-15T10:06:08;92067.63;;;4.86;48.10
11680;BME280;5896;42.686;23.142;2024-01-15T10:08:36;92058.22;;;5.36;46.39
11680;BME280;5896;42.686;23.142;2024-01-15T10:11:02;92058.84;;;5.57;46.30
11680;BME280;5896;42.686;23.142;2024-01-15T10:13:30;92052.19;;;4.99;47.28
11680;BME280;5896;42.686;23.142;2024-01-15T10:15:55;92046.38;;;4.85;48.52
11680;BME280;5896;42.686;23.142;2024-01-15T10:18:21;92037.63;;;5.00;47.71
11680;BME280;5896;42.686;23.142;2024-01-15T10:20:47;92039.19;;;5.01;47.85
11680;BME280;5896;42.686;23.142;2024-01-15T10:23:14;92047.50;;;5.21;48.16
11680;BME280;5896;42.686;23.142;2024-01-15T10:25:42;92032.44;;;5.38;48.37
11680;BME280;5896;42.686;23.142;2024-01-15T10:28:08;92020.66;;;5.99;46.76
11680;BME280;5896;42.686;23.142;2024-01-15T10:30:34;92029.94;;;6.12;46.79
11680;BME280;5896;42.686;23.142;2024-01-15T10:33:01;92029.59;;;6.08;47.17
11680;BME280;5896;42.686;23.142;2024-01-15T10:35:30;92014.09;;;5.59;48.34
11680;BME280;5896;42.686;23.142;2024-01-15T10:37:56;92024.75;;;5.38;50.33
11680;BME280;5896;42.686;23.142;2024-01-15T10:40:22;92029.91;;;5.31;49.48
11680;BME280;5896;42.686;23.142;2024-01-15T10:42:47;92010.31;;;5.19;50.10
11680;BME280;5896;42.686;23.142;2024-01-15T10:45:13;92013.66;;;5.44;49.92
11680;BME280;5896;42.686;23.142;2024-01-15T10:47:40;92013.25;;;5.47;50.60
11680;BME280;5896;42.686;23.142;2024-01-15T10:50:06;92019.50;;;5.51;50.14
11680;BME280;5896;42.686;23.142;2024-01-15T10:52:39;92006.69;;;5.95;48.67
11680;BME280;5896;42.686;23.142;2024-01-15T10:55:07;91994.22;;;6.17;49.29
11680;BME280;5896;42.686;23.142;2024-01-15T10:57:34;91992.56;;;5.85;48.55
11680;BME280;5896;42.686;23.142;2024-01-15T11:00:00;91996.69;;;5.86;49.36
11680;BME280;5896;42.686;23.142;2024-01-15T11:02:28;91991.00;;;5.84;49.36
11680;BME280;5896;42.686;23.142;2024-01-15T11:04:54;91986.16;;;6.31;47.66
11680;BME280;5896;42.686;23.142;2024-01-15T11:07:22;91987.88;;;6.19;48.52
11680;BME280;5896;42.686;23.142;2024-01-15T11:09:49;91977.13;;;6.29;48.68
11680;BME280;5896;42.686;23.142;2024-01-15T11:12:16;91961.19;;;6.69;47.53
11680;BME280;5896;42.686;23.142;2024-01-15T11:14:47;91978.31;;;6.87;45.96
11680;BME280;5896;42.686;23.142;2024-01-15T11:17:13;91967.16;;;6.93;45.38
11680;BME280;5896;42.686;23.142;2024-01-15T11:19:47;91968.47;;;6.83;45.70
11680;BME280;5896;42.686;23.142;2024-01-15T11:24:57;91973.41;;;6.25;46.80
11680;BME280;5896;42.686;23.142;2024-01-15T11:27:43;91957.25;;;5.57;48.95
11680;BME280;5896;42.686;23.142;2024-01-15T11:30:09;91963.97;;;5.89;48.65
11680;BME280;5896;42.686;23.142;2024-01-15T11:32:38;91976.03;;;6.06;48.17
11680;BME280;5896;42.686;23.142;2024-01-15T11:35:08;91976.50;;;5.78;48.45
11680;BME280;5896;42.686;23.142;2024-01-15T11:40:36;91975.66;;;5.84;49.01
11680;BME280;5896;42.686;23.142;2024-01-15T11:43:03;91977.91;;;5.74;48.88
11680;BME280;5896;42.686;23.142;2024-01-15T11:45:30;91959.88;;;5.88;49.24
11680;BME280;5896;42.686;23.142;2024-01-15T11:50:30;91958.09;;;6.06;50.08
11680;BME280;5896;42.686;23.142;2024-01-15T11:53:00;91947.41;;;6.09;47.79
11680;BME280;5896;42.686;23.142;2024-01-15T11:57:57;91955.78;;;6.17;47.76
11680;BME280;5896;42.686;23.142;2024-01-15T12:00:23;91939.66;;;5.98;48.91
11680;BME280;5896;42.686;23.142;2024-01-15T12:02:49;91939.09;;;5.96;47.92
11680;BME280;5896;42.686;23.142;2024-01-15T12:05:17;91931.56;;;5.64;48.33
11680;BME280;5896;42.686;23.142;2024-01-15T12:07:45;91947.72;;;5.46;50.31
11680;BME280;5896;42.686;23.142;2024-01-15T12:10:17;91941.53;;;5.54;49.89
11680;BME280;5896;42.686;23.142;2024-01-15T12:13:05;91944.63;;;5.56;49.41
11680;BME280;5896;42.686;23.142;2024-01-15T12:15:34;91940.94;;;5.33;50.36
11680;BME280;5896;42.686;23.142;2024-01-15T12:18:01;91930.91;;;5.32;50.67
11680;BME280;5896;42.686;23.142;2024-01-15T12:20:30;91919.69;;;5.33;50.94
11680;BME280;5896;42.686;23.142;2024-01-15T12:22:56;91925.38;;;5.53;49.59
11680;BME280;5896;42.686;23.142;2024-01-15T12:25:23;91928.78;;;5.66;49.51
11680;BME280;5896;42.686;23.142;2024-01-15T12:27:49;91922.66;;;5.67;50.00
11680;BME280;5896;42.686;23.142;2024-01-15T12:30:14;91913.78;;;5.69;49.04
11680;BME280;5896;42.686;23.142;2024-01-15T12:32:43;91909.75;;;5.61;51.12
11680;BME280;5896;42.686;23.142;2024-01-15T12:35:10;91910.28;;;5.64;49.41
11680;BME280;5896;42.686;23.142;2024-01-15T12:37:36;91894.09;;;5.70;49.39
11680;BME280;5896;42.686;23.142;2024-01-15T12:40:03;91900.28;;;5.62;49.54
11680;BME280;5896;42.686;23.142;2024-01-15T12:42:31;91894.44;;;5.55;49.79
11680;BME280;5896;42.686;23.142;2024-01-15T12:44:57;91910.22;;;5.52;49.58
11680;BME280;5896;42.686;23.142;2024-01-15T12:47:22;91899.00;;;5.53;49.80
11680;BME280;5896;42.686;23.142;2024-01-15T12:49:48;91900.00;;;5.52;50.00
11680;BME280;5896;42.686;23.142;2024-01-15T12:52:19;91895.66;;;5.52;51.56
11680;BME280;5896;42.686;23.142;2024-01-15T12:54:45;91892.47;;;5.57;50.23
11680;BME280;5896;42.686;23.142;2024-01-15T12:57:10;91886.50;;;5.45;51.20
11680;BME280;5896;42.686;23.142;2024-01-15T12:59:35;91888.84;;;5.46;51.63
11680;BME280;5896;42.686;23.142;2024-01-15T13:02:01;91887.41;;;5.32;51.93
11680;BME280;5896;42.686;23.142;2024-01-15T13:04:26;91901.13;;;5.37;51.59
11680;BME280;5896;42.686;23.142;2024-01-15T13:06:52;91886.50;;;5.45;50.92
11680;BME280;5896;42.686;23.142;2024-01-15T13:09:18;91891.00;;;5.49;50.97
11680;BME280;5896;42.686;23.142;2024-01-15T13:11:44;91890.47;;;5.41;51.89